sensor_id;sensor_type;location;lat;lon;timestamp;P1;durP1;ratioP1;P2;durP2;ratioP2
18568;SDS011;14780;48.316;-1.050;2023-03-29T00:01:44;2.75;;;2.03;;
18568;SDS011;14780;48.316;-1.050;2023-03-29T00:04:28;3.55;;;1.95;;
18568;SDS011;14780;48.316;-1.050;2023-03-29T00:07:13;4.32;;;2.15;;
18568;SDS011;14780;48.316;-1.050;2023-03-29T00:09:58;3.47;;;2.30;;
18568;SDS011;14780;48.316;-1.050;2023-03-29T00:12:43;3.53;;;2.10;;
18568;SDS011;14780;48.316;-1.050;2023-03-29T00:15:28;4.22;;;2.13;;
18568;SDS011;14780;48.316;-1.050;2023-03-29T00:18:13;3.50;;;1.90;;
18568;SDS011;14780;48.316;-1.050;2023-03-29T00:20:58;3.28;;;2.00;;
18568;SDS011;14780;48.316;-1.050;2023-03-29T00:23:43;2.78;;;2.00;;
18568;SDS011;14780;48.316;-1.050;2023-03-29T00:26:28;3.45;;;2.20;;
18568;SDS011;14780;48.316;-1.050;2023-03-29T00:29:13;4.13;;;2.15;;
18568;SDS011;14780;48.316;-1.050;2023-03-29T00:31:58;4.63;;;2.00;;
18568;SDS011;14780;48.316;-1.050;2023-03-29T00:34:43;4.43;;;2.20;;
18568;SDS011;14780;48.316;-1.050;2023-03-29T00:37:28;3.58;;;1.95;;
18568;SDS011;14780;48.316;-1.050;2023-03-29T00:40:13;3.85;;;2.00;;
18568;SDS011;14780;48.316;-1.050;2023-03-29T00:42:59;2.67;;;2.08;;
18568;SDS011;14780;48.316;-1.050;2023-03-29T00:45:44;6.43;;;2.10;;
18568;SDS011;14780;48.316;-1.050;2023-03-29T00:48:29;3.22;;;1.80;;
18568;SDS011;14780;48.316;-1.050;2023-03-29T00:51:15;3.90;;;2.15;;
18568;SDS011;14780;48.316;-1.050;2023-03-29T00:54:02;4.22;;;2.00;;
18568;SDS011;14780;48.316;-1.050;2023-03-29T00:56:52;2.90;;;2.13;;
18568;SDS011;14780;48.316;-1.050;2023-03-29T00:59:37;2.65;;;1.70;;
18568;SDS011;14780;48.316;-1.050;2023-03-29T01:02:24;3.13;;;2.10;;
18568;SDS011;14780;48.316;-1.050;2023-03-29T01:05:14;2.72;;;1.95;;
18568;SDS011;14780;48.316;-1.050;2023-03-29T01:08:10;4.15;;;2.20;;
18568;SDS011;14780;48.316;-1.050;2023-03-29T01:11:08;3.90;;;2.10;;
18568;SDS011;14780;48.316;-1.050;2023-03-29T01:14:04;3.30;;;1.95;;
18568;SDS011;14780;48.316;-1.050;2023-03-29T01:16:52;3.72;;;2.15;;
18568;SDS011;14780;48.316;-1.050;2023-03-29T01:19:39;2.63;;;1.92;;
18568;SDS011;14780;48.316;-1.050;2023-03-29T01:25:47;3.38;;;1.83;;
18568;SDS011;14780;48.316;-1.050;2023-03-29T01:28:59;2.50;;;1.75;;
18568;SDS011;14780;48.316;-1.050;2023-03-29T01:32:00;3.75;;;2.08;;
18568;SDS011;14780;48.316;-1.050;2023-03-29T01:35:14;3.15;;;2.10;;
18568;SDS011;14780;48.316;-1.050;2023-03-29T01:38:25;3.10;;;2.10;;
18568;SDS011;14780;48.316;-1.050;2023-03-29T01:41:17;4.10;;;2.03;;
18568;SDS011;14780;48.316;-1.050;2023-03-29T01:44:08;3.15;;;2.15;;
18568;SDS011;14780;48.316;-1.050;2023-03-29T01:47:25;4.50;;;2.65;;
18568;SDS011;14780;48.316;-1.050;2023-03-29T01:50:18;3.83;;;2.17;;
18568;SDS011;14780;48.316;-1.050;2023-03-29T01:56:15;3.65;;;2.15;;
18568;SDS011;14780;48.316;-1.050;2023-03-29T01:59:08;3.00;;;2.05;;
18568;SDS011;14780;48.316;-1.050;2023-03-29T02:01:57;3.13;;;2.17;;
18568;SDS011;14780;48.316;-1.050;2023-03-29T02:04:49;6.15;;;2.60;;
18568;SDS011;14780;48.316;-1.050;2023-03-29T02:07:37;4.75;;;2.28;;
18568;SDS011;14780;48.316;-1.050;2023-03-29T02:10:24;3.90;;;2.17;;
18568;SDS011;14780;48.316;-1.050;2023-03-29T02:13:10;5.28;;;2.28;;
18568;SDS011;14780;48.316;-1.050;2023-03-29T02:15:55;4.20;;;2.45;;
18568;SDS011;14780;48.316;-1.050;2023-03-29T02:18:43;4.95;;;2.17;;
18568;SDS011;14780;48.316;-1.050;2023-03-29T02:27:07;3.10;;;2.17;;
18568;SDS011;14780;48.316;-1.050;2023-03-29T02:29:53;4.85;;;2.45;;
18568;SDS011;14780;48.316;-1.050;2023-03-29T02:35:32;4.63;;;2.15;;
18568;SDS011;14780;48.316;-1.050;2023-03-29T02:38:20;2.97;;;1.98;;
18568;SDS011;14780;48.316;-1.050;2023-03-29T02:41:08;3.80;;;2.50;;
18568;SDS011;14780;48.316;-1.050;2023-03-29T02:43:54;4.32;;;2.28;;
18568;SDS011;14780;48.316;-1.050;2023-03-29T02:46:42;4.68;;;2.30;;
18568;SDS011;14780;48.316;-1.050;2023-03-29T02:49:28;5.53;;;2.40;;
18568;SDS011;14780;48.316;-1.050;2023-03-29T02:52:14;4.32;;;2.30;;
18568;SDS011;14780;48.316;-1.050;2023-03-29T02:55:07;3.05;;;2.00;;
18568;SDS011;14780;48.316;-1.050;2023-03-29T02:57:57;4.07;;;2.30;;
18568;SDS011;14780;48.316;-1.050;2023-03-29T03:00:46;5.32;;;2.97;;
18568;SDS011;14780;48.316;-1.050;2023-03-29T03:03:31;4.93;;;2.35;;
18568;SDS011;14780;48.316;-1.050;2023-03-29T03:06:17;4.43;;;2.25;;
18568;SDS011;14780;48.316;-1.050;2023-03-29T03:09:04;3.35;;;2.17;;
18568;SDS011;14780;48.316;-1.050;2023-03-29T03:11:49;5.22;;;2.30;;
18568;SDS011;14780;48.316;-1.050;2023-03-29T03:14:34;3.55;;;2.10;;
18568;SDS011;14780;48.316;-1.050;2023-03-29T03:17:19;3.75;;;2.30;;
18568;SDS011;14780;48.316;-1.050;2023-03-29T03:20:06;4.00;;;2.20;;
18568;SDS011;14780;48.316;-1.050;2023-03-29T03:22:55;5.57;;;2.38;;
18568;SDS011;14780;48.316;-1.050;2023-03-29T03:25:41;4.72;;;2.30;;
18568;SDS011;14780;48.316;-1.050;2023-03-29T03:28:27;3.85;;;2.10;;
18568;SDS011;14780;48.316;-1.050;2023-03-29T03:31:11;2.65;;;2.00;;
18568;SDS011;14780;48.316;-1.050;2023-03-29T03:33:57;2.78;;;2.17;;
18568;SDS011;14780;48.316;-1.050;2023-03-29T03:36:42;2.83;;;1.83;;
18568;SDS011;14780;48.316;-1.050;2023-03-29T03:39:28;4.07;;;2.35;;
18568;SDS011;14780;48.316;-1.050;2023-03-29T03:42:12;3.97;;;2.08;;
18568;SDS011;14780;48.316;-1.050;2023-03-29T03:44:57;3.80;;;2.13;;
18568;SDS011;14780;48.316;-1.050;2023-03-29T03:47:42;5.35;;;2.33;;
18568;SDS011;14780;48.316;-1.050;2023-03-29T03:50:26;3.22;;;2.10;;
18568;SDS011;14780;48.316;-1.050;2023-03-29T03:53:11;4.72;;;2.40;;
18568;SDS011;14780;48.316;-1.050;2023-03-29T03:55:55;3.72;;;2.10;;
18568;SDS011;14780;48.316;-1.050;2023-03-29T03:58:40;3.50;;;2.20;;
18568;SDS011;14780;48.316;-1.050;2023-03-29T04:01:25;3.35;;;1.92;;
18568;SDS011;14780;48.316;-1.050;2023-03-29T04:04:11;3.85;;;2.30;;
18568;SDS011;14780;48.316;-1.050;2023-03-29T04:06:57;3.47;;;2.28;;
18568;SDS011;14780;48.316;-1.050;2023-03-29T04:09:45;5.07;;;2.40;;
18568;SDS011;14780;48.316;-1.050;2023-03-29T04:12:29;3.67;;;2.30;;
18568;SDS011;14780;48.316;-1.050;2023-03-29T04:15:14;4.40;;;2.15;;
18568;SDS011;14780;48.316;-1.050;2023-03-29T04:18:00;3.35;;;2.28;;
18568;SDS011;14780;48.316;-1.050;2023-03-29T04:20:45;2.75;;;1.90;;
18568;SDS011;14780;48.316;-1.050;2023-03-29T04:23:30;3.60;;;2.20;;
18568;SDS011;14780;48.316;-1.050;2023-03-29T04:26:15;2.85;;;2.05;;
18568;SDS011;14780;48.316;-1.050;2023-03-29T04:29:00;4.18;;;2.38;;
18568;SDS011;14780;48.316;-1.050;2023-03-29T04:31:45;3.22;;;2.20;;
18568;SDS011;14780;48.316;-1.050;2023-03-29T04:34:29;3.17;;;2.20;;
18568;SDS011;14780;48.316;-1.050;2023-03-29T04:37:14;3.13;;;2.00;;
18568;SDS011;14780;48.316;-1.050;2023-03-29T04:40:05;3.22;;;2.20;;
18568;SDS011;14780;48.316;-1.050;2023-03-29T04:42:56;3.85;;;2.28;;
18568;SDS011;14780;48.316;-1.050;2023-03-29T04:45:42;4.03;;;1.92;;
18568;SDS011;14780;48.316;-1.050;2023-03-29T04:48:27;3.50;;;2.13;;
18568;SDS011;14780;48.316;-1.050;2023-03-29T04:51:14;3.63;;;2.17;;
18568;SDS011;14780;48.316;-1.050;2023-03-29T04:53:59;3.63;;;2.10;;
18568;SDS011;14780;48.316;-1.050;2023-03-29T04:56:43;3.60;;;2.30;;
18568;SDS011;14780;48.316;-1.050;2023-03-29T04:59:28;2.80;;;2.00;;
18568;SDS011;14780;48.316;-1.050;2023-03-29T05:02:13;2.90;;;2.00;;
18568;SDS011;14780;48.316;-1.050;2023-03-29T05:04:58;2.50;;;1.88;;
18568;SDS011;14780;48.316;-1.050;2023-03-29T05:07:43;3.10;;;1.85;;
18568;SDS011;14780;48.316;-1.050;2023-03-29T05:10:28;3.15;;;1.98;;
18568;SDS011;14780;48.316;-1.050;2023-03-29T05:13:12;3.20;;;2.00;;
18568;SDS011;14780;48.316;-1.050;2023-03-29T05:15:57;4.30;;;2.35;;
18568;SDS011;14780;48.316;-1.050;2023-03-29T05:18:43;2.88;;;2.03;;
18568;SDS011;14780;48.316;-1.050;2023-03-29T05:21:28;4.00;;;2.17;;
18568;SDS011;14780;48.316;-1.050;2023-03-29T05:24:13;3.80;;;2.13;;
18568;SDS011;14780;48.316;-1.050;2023-03-29T05:26:59;3.58;;;1.98;;
18568;SDS011;14780;48.316;-1.050;2023-03-29T05:29:44;3.67;;;2.20;;
18568;SDS011;14780;48.316;-1.050;2023-03-29T05:32:29;3.72;;;2.10;;
18568;SDS011;14780;48.316;-1.050;2023-03-29T05:35:13;3.85;;;2.10;;
18568;SDS011;14780;48.316;-1.050;2023-03-29T05:37:59;3.78;;;2.20;;
18568;SDS011;14780;48.316;-1.050;2023-03-29T05:40:44;2.72;;;2.05;;
18568;SDS011;14780;48.316;-1.050;2023-03-29T05:43:29;3.17;;;2.10;;
18568;SDS011;14780;48.316;-1.050;2023-03-29T05:46:14;3.92;;;2.38;;
18568;SDS011;14780;48.316;-1.050;2023-03-29T05:48:58;3.17;;;2.10;;
18568;SDS011;14780;48.316;-1.050;2023-03-29T05:51:44;4.28;;;2.30;;
18568;SDS011;14780;48.316;-1.050;2023-03-29T05:54:29;3.08;;;2.08;;
18568;SDS011;14780;48.316;-1.050;2023-03-29T05:57:13;4.15;;;1.92;;
18568;SDS011;14780;48.316;-1.050;2023-03-29T05:59:58;4.57;;;2.20;;
18568;SDS011;14780;48.316;-1.050;2023-03-29T06:02:43;3.50;;;2.17;;
18568;SDS011;14780;48.316;-1.050;2023-03-29T06:05:28;2.55;;;1.90;;
18568;SDS011;14780;48.316;-1.050;2023-03-29T06:08:13;3.70;;;2.17;;
18568;SDS011;14780;48.316;-1.050;2023-03-29T06:11:00;25.27;;;13.80;;
18568;SDS011;14780;48.316;-1.050;2023-03-29T06:13:47;52.30;;;27.73;;
18568;SDS011;14780;48.316;-1.050;2023-03-29T06:16:32;60.65;;;32.08;;
18568;SDS011;14780;48.316;-1.050;2023-03-29T06:19:17;72.68;;;39.50;;
18568;SDS011;14780;48.316;-1.050;2023-03-29T06:22:02;70.78;;;40.63;;
18568;SDS011;14780;48.316;-1.050;2023-03-29T06:24:46;71.55;;;38.58;;
18568;SDS011;14780;48.316;-1.050;2023-03-29T06:27:31;70.78;;;41.65;;
18568;SDS011;14780;48.316;-1.050;2023-03-29T06:30:16;67.43;;;39.17;;
18568;SDS011;14780;48.316;-1.050;2023-03-29T06:33:02;70.88;;;39.33;;
18568;SDS011;14780;48.316;-1.050;2023-03-29T06:35:49;64.78;;;36.17;;
18568;SDS011;14780;48.316;-1.050;2023-03-29T06:38:34;62.42;;;34.30;;
18568;SDS011;14780;48.316;-1.050;2023-03-29T06:41:18;57.13;;;32.97;;
18568;SDS011;14780;48.316;-1.050;2023-03-29T06:44:04;62.53;;;33.00;;
18568;SDS011;14780;48.316;-1.050;2023-03-29T06:46:49;55.00;;;30.17;;
18568;SDS011;14780;48.316;-1.050;2023-03-29T06:49:33;52.10;;;27.23;;
18568;SDS011;14780;48.316;-1.050;2023-03-29T06:52:18;44.83;;;25.23;;
18568;SDS011;14780;48.316;-1.050;2023-03-29T06:55:03;44.10;;;25.45;;
18568;SDS011;14780;48.316;-1.050;2023-03-29T06:57:50;45.88;;;25.52;;
18568;SDS011;14780;48.316;-1.050;2023-03-29T07:00:36;43.75;;;24.00;;
18568;SDS011;14780;48.316;-1.050;2023-03-29T07:03:22;37.42;;;21.80;;
18568;SDS011;14780;48.316;-1.050;2023-03-29T07:06:07;39.33;;;21.33;;
18568;SDS011;14780;48.316;-1.050;2023-03-29T07:08:53;32.65;;;19.77;;
18568;SDS011;14780;48.316;-1.050;2023-03-29T07:11:42;35.65;;;19.10;;
18568;SDS011;14780;48.316;-1.050;2023-03-29T07:14:27;36.45;;;20.10;;
18568;SDS011;14780;48.316;-1.050;2023-03-29T07:17:12;31.20;;;18.67;;
18568;SDS011;14780;48.316;-1.050;2023-03-29T07:19:59;29.05;;;18.95;;
18568;SDS011;14780;48.316;-1.050;2023-03-29T07:22:44;30.50;;;16.83;;
18568;SDS011;14780;48.316;-1.050;2023-03-29T07:25:30;32.63;;;16.80;;
18568;SDS011;14780;48.316;-1.050;2023-03-29T07:28:16;27.80;;;15.35;;
18568;SDS011;14780;48.316;-1.050;2023-03-29T07:31:08;30.25;;;16.58;;
18568;SDS011;14780;48.316;-1.050;2023-03-29T07:33:54;24.90;;;13.35;;
18568;SDS011;14780;48.316;-1.050;2023-03-29T07:36:39;27.58;;;15.13;;
18568;SDS011;14780;48.316;-1.050;2023-03-29T07:39:26;24.90;;;14.68;;
18568;SDS011;14780;48.316;-1.050;2023-03-29T07:42:10;24.20;;;13.30;;
18568;SDS011;14780;48.316;-1.050;2023-03-29T07:44:55;26.25;;;13.68;;
18568;SDS011;14780;48.316;-1.050;2023-03-29T07:47:41;23.42;;;13.40;;
18568;SDS011;14780;48.316;-1.050;2023-03-29T07:50:27;17.92;;;11.98;;
18568;SDS011;14780;48.316;-1.050;2023-03-29T07:53:15;23.77;;;12.75;;
18568;SDS011;14780;48.316;-1.050;2023-03-29T07:56:00;19.85;;;11.25;;
18568;SDS011;14780;48.316;-1.050;2023-03-29T07:58:44;22.13;;;11.48;;
18568;SDS011;14780;48.316;-1.050;2023-03-29T08:01:29;19.02;;;11.00;;
18568;SDS011;14780;48.316;-1.050;2023-03-29T08:04:14;14.48;;;9.45;;
18568;SDS011;14780;48.316;-1.050;2023-03-29T08:07:00;19.33;;;10.75;;
18568;SDS011;14780;48.316;-1.050;2023-03-29T08:09:44;19.95;;;11.30;;
18568;SDS011;14780;48.316;-1.050;2023-03-29T08:12:29;21.00;;;10.48;;
18568;SDS011;14780;48.316;-1.050;2023-03-29T08:15:14;16.77;;;9.95;;
18568;SDS011;14780;48.316;-1.050;2023-03-29T08:17:59;18.08;;;9.20;;
18568;SDS011;14780;48.316;-1.050;2023-03-29T08:20:44;15.27;;;8.75;;
18568;SDS011;14780;48.316;-1.050;2023-03-29T08:23:29;15.82;;;9.35;;
18568;SDS011;14780;48.316;-1.050;2023-03-29T08:26:14;18.45;;;8.85;;
18568;SDS011;14780;48.316;-1.050;2023-03-29T08:28:59;15.18;;;8.57;;
18568;SDS011;14780;48.316;-1.050;2023-03-29T08:31:44;15.50;;;8.57;;
18568;SDS011;14780;48.316;-1.050;2023-03-29T08:34:29;16.90;;;8.30;;
18568;SDS011;14780;48.316;-1.050;2023-03-29T08:37:14;14.13;;;7.63;;
18568;SDS011;14780;48.316;-1.050;2023-03-29T08:39:59;14.50;;;7.85;;
18568;SDS011;14780;48.316;-1.050;2023-03-29T08:42:47;14.60;;;8.00;;
18568;SDS011;14780;48.316;-1.050;2023-03-29T08:49:03;16.52;;;7.70;;
18568;SDS011;14780;48.316;-1.050;2023-03-29T08:51:48;11.75;;;7.50;;
18568;SDS011;14780;48.316;-1.050;2023-03-29T08:54:42;14.35;;;6.90;;
18568;SDS011;14780;48.316;-1.050;2023-03-29T08:57:31;13.43;;;7.43;;
18568;SDS011;14780;48.316;-1.050;2023-03-29T09:00:36;13.30;;;5.95;;
18568;SDS011;14780;48.316;-1.050;2023-03-29T09:03:29;11.38;;;5.47;;
18568;SDS011;14780;48.316;-1.050;2023-03-29T09:06:18;12.27;;;5.97;;
18568;SDS011;14780;48.316;-1.050;2023-03-29T09:09:08;12.70;;;6.18;;
18568;SDS011;14780;48.316;-1.050;2023-03-29T09:15:12;8.23;;;4.80;;
18568;SDS011;14780;48.316;-1.050;2023-03-29T09:26:53;12.70;;;5.65;;
18568;SDS011;14780;48.316;-1.050;2023-03-29T09:29:57;11.90;;;5.80;;
18568;SDS011;14780;48.316;-1.050;2023-03-29T09:33:12;14.88;;;6.22;;
18568;SDS011;14780;48.316;-1.050;2023-03-29T09:36:06;11.85;;;5.90;;
18568;SDS011;14780;48.316;-1.050;2023-03-29T09:39:00;11.43;;;5.53;;
18568;SDS011;14780;48.316;-1.050;2023-03-29T09:41:48;13.45;;;6.20;;
18568;SDS011;14780;48.316;-1.050;2023-03-29T09:44:44;12.00;;;5.10;;
18568;SDS011;14780;48.316;-1.050;2023-03-29T09:50:36;9.52;;;5.20;;
18568;SDS011;14780;48.316;-1.050;2023-03-29T09:53:30;9.65;;;5.68;;
18568;SDS011;14780;48.316;-1.050;2023-03-29T09:56:15;7.65;;;4.80;;
18568;SDS011;14780;48.316;-1.050;2023-03-29T09:59:01;12.18;;;5.32;;
18568;SDS011;14780;48.316;-1.050;2023-03-29T10:01:46;8.52;;;4.53;;
18568;SDS011;14780;48.316;-1.050;2023-03-29T10:04:31;10.27;;;4.97;;
18568;SDS011;14780;48.316;-1.050;2023-03-29T10:22:21;7.70;;;3.65;;
18568;SDS011;14780;48.316;-1.050;2023-03-29T10:25:13;13.55;;;5.30;;
18568;SDS011;14780;48.316;-1.050;2023-03-29T10:30:54;15.15;;;4.47;;
18568;SDS011;14780;48.316;-1.050;2023-03-29T10:33:42;8.82;;;3.47;;
18568;SDS011;14780;48.316;-1.050;2023-03-29T10:36:33;9.98;;;4.25;;
18568;SDS011;14780;48.316;-1.050;2023-03-29T10:39:18;7.90;;;3.70;;
18568;SDS011;14780;48.316;-1.050;2023-03-29T10:42:14;10.50;;;4.28;;
18568;SDS011;14780;48.316;-1.050;2023-03-29T10:45:01;12.10;;;3.93;;
18568;SDS011;14780;48.316;-1.050;2023-03-29T10:47:47;10.30;;;3.65;;
18568;SDS011;14780;48.316;-1.050;2023-03-29T10:50:32;5.72;;;3.75;;
18568;SDS011;14780;48.316;-1.050;2023-03-29T11:08:06;6.53;;;3.63;;
18568;SDS011;14780;48.316;-1.050;2023-03-29T11:11:46;6.88;;;3.83;;
18568;SDS011;14780;48.316;-1.050;2023-03-29T11:17:54;5.75;;;2.90;;
18568;SDS011;14780;48.316;-1.050;2023-03-29T11:21:23;6.57;;;2.90;;
18568;SDS011;14780;48.316;-1.050;2023-03-29T11:24:25;6.35;;;3.03;;
18568;SDS011;14780;48.316;-1.050;2023-03-29T11:36:54;4.28;;;2.70;;
18568;SDS011;14780;48.316;-1.050;2023-03-29T11:42:45;4.82;;;2.67;;
18568;SDS011;14780;48.316;-1.050;2023-03-29T11:45:35;4.70;;;2.95;;
18568;SDS011;14780;48.316;-1.050;2023-03-29T11:48:30;6.30;;;2.92;;
18568;SDS011;14780;48.316;-1.050;2023-03-29T11:54:32;7.30;;;3.37;;
18568;SDS011;14780;48.316;-1.050;2023-03-29T12:00:40;3.15;;;2.40;;
18568;SDS011;14780;48.316;-1.050;2023-03-29T12:03:48;5.32;;;2.90;;
18568;SDS011;14780;48.316;-1.050;2023-03-29T12:07:12;4.22;;;2.92;;
18568;SDS011;14780;48.316;-1.050;2023-03-29T12:10:07;4.80;;;2.42;;
18568;SDS011;14780;48.316;-1.050;2023-03-29T12:13:15;10.27;;;3.30;;
18568;SDS011;14780;48.316;-1.050;2023-03-29T12:16:16;5.10;;;2.53;;
18568;SDS011;14780;48.316;-1.050;2023-03-29T12:19:16;6.95;;;2.80;;
18568;SDS011;14780;48.316;-1.050;2023-03-29T12:22:12;5.35;;;2.72;;
18568;SDS011;14780;48.316;-1.050;2023-03-29T12:24:57;6.57;;;3.47;;
18568;SDS011;14780;48.316;-1.050;2023-03-29T12:27:50;5.88;;;2.40;;
18568;SDS011;14780;48.316;-1.050;2023-03-29T12:31:22;5.88;;;2.70;;
18568;SDS011;14780;48.316;-1.050;2023-03-29T12:34:24;5.15;;;2.67;;
18568;SDS011;14780;48.316;-1.050;2023-03-29T12:37:31;3.88;;;2.65;;
18568;SDS011;14780;48.316;-1.050;2023-03-29T12:40:21;4.50;;;2.55;;
18568;SDS011;14780;48.316;-1.050;2023-03-29T12:43:24;5.05;;;2.65;;
18568;SDS011;14780;48.316;-1.050;2023-03-29T12:49:08;3.92;;;2.30;;
18568;SDS011;14780;48.316;-1.050;2023-03-29T12:52:20;5.10;;;2.33;;
18568;SDS011;14780;48.316;-1.050;2023-03-29T12:55:20;4.18;;;2.35;;
18568;SDS011;14780;48.316;-1.050;2023-03-29T13:04:16;4.97;;;2.83;;
18568;SDS011;14780;48.316;-1.050;2023-03-29T13:07:03;3.58;;;2.50;;
18568;SDS011;14780;48.316;-1.050;2023-03-29T13:09:51;6.47;;;3.08;;
18568;SDS011;14780;48.316;-1.050;2023-03-29T13:15:31;4.75;;;2.65;;
18568;SDS011;14780;48.316;-1.050;2023-03-29T13:18:31;6.55;;;2.85;;
18568;SDS011;14780;48.316;-1.050;2023-03-29T13:21:58;9.45;;;3.25;;
18568;SDS011;14780;48.316;-1.050;2023-03-29T13:28:25;6.03;;;2.60;;
18568;SDS011;14780;48.316;-1.050;2023-03-29T13:40:56;3.67;;;2.05;;
18568;SDS011;14780;48.316;-1.050;2023-03-29T13:43:53;12.00;;;3.13;;
18568;SDS011;14780;48.316;-1.050;2023-03-29T13:46:42;3.20;;;2.17;;
18568;SDS011;14780;48.316;-1.050;2023-03-29T13:49:30;6.35;;;2.63;;
18568;SDS011;14780;48.316;-1.050;2023-03-29T13:52:30;4.85;;;2.53;;
18568;SDS011;14780;48.316;-1.050;2023-03-29T13:55:30;3.63;;;2.22;;
18568;SDS011;14780;48.316;-1.050;2023-03-29T14:01:38;4.47;;;2.60;;
18568;SDS011;14780;48.316;-1.050;2023-03-29T14:04:26;5.75;;;2.75;;
18568;SDS011;14780;48.316;-1.050;2023-03-29T14:07:17;5.10;;;2.50;;
18568;SDS011;14780;48.316;-1.050;2023-03-29T14:10:17;7.20;;;3.03;;
18568;SDS011;14780;48.316;-1.050;2023-03-29T14:13:11;5.25;;;2.42;;
18568;SDS011;14780;48.316;-1.050;2023-03-29T14:16:01;6.97;;;2.40;;
18568;SDS011;14780;48.316;-1.050;2023-03-29T14:18:49;4.95;;;2.17;;
18568;SDS011;14780;48.316;-1.050;2023-03-29T14:21:35;7.07;;;3.08;;
18568;SDS011;14780;48.316;-1.050;2023-03-29T14:24:21;4.53;;;3.00;;
18568;SDS011;14780;48.316;-1.050;2023-03-29T14:27:09;4.93;;;2.67;;
18568;SDS011;14780;48.316;-1.050;2023-03-29T14:29:54;10.65;;;3.35;;
18568;SDS011;14780;48.316;-1.050;2023-03-29T14:32:39;11.40;;;5.63;;
18568;SDS011;14780;48.316;-1.050;2023-03-29T14:35:28;10.07;;;4.65;;
18568;SDS011;14780;48.316;-1.050;2023-03-29T14:38:15;7.72;;;4.03;;
18568;SDS011;14780;48.316;-1.050;2023-03-29T14:41:00;8.95;;;4.22;;
18568;SDS011;14780;48.316;-1.050;2023-03-29T14:43:46;6.97;;;4.32;;
18568;SDS011;14780;48.316;-1.050;2023-03-29T14:46:31;7.95;;;4.45;;
18568;SDS011;14780;48.316;-1.050;2023-03-29T14:49:18;9.40;;;4.15;;
18568;SDS011;14780;48.316;-1.050;2023-03-29T14:52:05;10.20;;;4.50;;
18568;SDS011;14780;48.316;-1.050;2023-03-29T14:54:53;6.47;;;3.97;;
18568;SDS011;14780;48.316;-1.050;2023-03-29T14:57:39;9.25;;;3.83;;
18568;SDS011;14780;48.316;-1.050;2023-03-29T15:00:36;6.47;;;3.28;;
18568;SDS011;14780;48.316;-1.050;2023-03-29T15:03:24;7.53;;;3.72;;
18568;SDS011;14780;48.316;-1.050;2023-03-29T15:06:09;9.00;;;3.40;;
18568;SDS011;14780;48.316;-1.050;2023-03-29T15:08:56;6.90;;;3.70;;
18568;SDS011;14780;48.316;-1.050;2023-03-29T15:11:50;6.45;;;3.67;;
18568;SDS011;14780;48.316;-1.050;2023-03-29T15:14:37;6.57;;;3.35;;
18568;SDS011;14780;48.316;-1.050;2023-03-29T15:17:25;5.65;;;3.17;;
18568;SDS011;14780;48.316;-1.050;2023-03-29T15:26:11;8.48;;;3.65;;
18568;SDS011;14780;48.316;-1.050;2023-03-29T15:29:11;10.30;;;4.32;;
18568;SDS011;14780;48.316;-1.050;2023-03-29T15:32:00;7.80;;;4.50;;
18568;SDS011;14780;48.316;-1.050;2023-03-29T15:34:56;10.93;;;5.60;;
18568;SDS011;14780;48.316;-1.050;2023-03-29T15:37:45;10.65;;;5.13;;
18568;SDS011;14780;48.316;-1.050;2023-03-29T15:40:30;14.35;;;5.93;;
18568;SDS011;14780;48.316;-1.050;2023-03-29T15:43:15;13.20;;;5.13;;
18568;SDS011;14780;48.316;-1.050;2023-03-29T15:46:02;11.40;;;5.50;;
18568;SDS011;14780;48.316;-1.050;2023-03-29T15:48:47;21.85;;;5.90;;
18568;SDS011;14780;48.316;-1.050;2023-03-29T15:51:32;8.27;;;3.88;;
18568;SDS011;14780;48.316;-1.050;2023-03-29T15:54:16;11.93;;;5.45;;
18568;SDS011;14780;48.316;-1.050;2023-03-29T15:57:02;8.70;;;4.97;;
18568;SDS011;14780;48.316;-1.050;2023-03-29T15:59:49;13.88;;;5.65;;
18568;SDS011;14780;48.316;-1.050;2023-03-29T16:02:34;11.43;;;5.55;;
18568;SDS011;14780;48.316;-1.050;2023-03-29T16:05:19;13.15;;;6.10;;
18568;SDS011;14780;48.316;-1.050;2023-03-29T16:08:04;12.93;;;5.63;;
18568;SDS011;14780;48.316;-1.050;2023-03-29T16:10:49;10.77;;;6.03;;
18568;SDS011;14780;48.316;-1.050;2023-03-29T16:13:34;12.88;;;5.85;;
18568;SDS011;14780;48.316;-1.050;2023-03-29T16:16:19;9.82;;;5.30;;
18568;SDS011;14780;48.316;-1.050;2023-03-29T16:19:03;10.63;;;4.78;;
18568;SDS011;14780;48.316;-1.050;2023-03-29T16:21:49;11.50;;;4.68;;
18568;SDS011;14780;48.316;-1.050;2023-03-29T16:24:35;8.88;;;4.10;;
18568;SDS011;14780;48.316;-1.050;2023-03-29T16:27:20;8.90;;;4.57;;
18568;SDS011;14780;48.316;-1.050;2023-03-29T16:30:04;10.65;;;4.93;;
18568;SDS011;14780;48.316;-1.050;2023-03-29T16:32:50;9.32;;;3.85;;
18568;SDS011;14780;48.316;-1.050;2023-03-29T16:35:36;14.40;;;5.78;;
18568;SDS011;14780;48.316;-1.050;2023-03-29T16:38:22;8.95;;;5.40;;
18568;SDS011;14780;48.316;-1.050;2023-03-29T16:41:13;7.60;;;4.25;;
18568;SDS011;14780;48.316;-1.050;2023-03-29T16:43:59;7.15;;;4.50;;
18568;SDS011;14780;48.316;-1.050;2023-03-29T16:46:44;9.32;;;4.70;;
18568;SDS011;14780;48.316;-1.050;2023-03-29T16:49:28;7.10;;;4.32;;
18568;SDS011;14780;48.316;-1.050;2023-03-29T16:52:13;8.55;;;4.15;;
18568;SDS011;14780;48.316;-1.050;2023-03-29T16:54:58;8.38;;;4.28;;
18568;SDS011;14780;48.316;-1.050;2023-03-29T16:57:43;7.13;;;4.07;;
18568;SDS011;14780;48.316;-1.050;2023-03-29T17:00:29;16.48;;;4.70;;
18568;SDS011;14780;48.316;-1.050;2023-03-29T17:03:15;7.90;;;4.20;;
18568;SDS011;14780;48.316;-1.050;2023-03-29T17:06:00;8.98;;;3.53;;
18568;SDS011;14780;48.316;-1.050;2023-03-29T17:08:46;8.48;;;2.83;;
18568;SDS011;14780;48.316;-1.050;2023-03-29T17:11:33;6.25;;;3.50;;
18568;SDS011;14780;48.316;-1.050;2023-03-29T17:14:18;15.35;;;4.22;;
18568;SDS011;14780;48.316;-1.050;2023-03-29T17:17:03;6.20;;;3.83;;
18568;SDS011;14780;48.316;-1.050;2023-03-29T17:19:48;6.45;;;3.50;;
18568;SDS011;14780;48.316;-1.050;2023-03-29T17:22:34;8.02;;;3.22;;
18568;SDS011;14780;48.316;-1.050;2023-03-29T17:25:18;6.95;;;3.30;;
18568;SDS011;14780;48.316;-1.050;2023-03-29T17:28:04;7.80;;;3.10;;
18568;SDS011;14780;48.316;-1.050;2023-03-29T17:30:49;5.20;;;3.00;;
18568;SDS011;14780;48.316;-1.050;2023-03-29T17:33:34;5.03;;;3.05;;
18568;SDS011;14780;48.316;-1.050;2023-03-29T17:36:20;4.97;;;2.90;;
18568;SDS011;14780;48.316;-1.050;2023-03-29T17:39:06;7.43;;;3.15;;
18568;SDS011;14780;48.316;-1.050;2023-03-29T17:41:52;5.25;;;3.13;;
18568;SDS011;14780;48.316;-1.050;2023-03-29T17:44:37;5.22;;;3.10;;
18568;SDS011;14780;48.316;-1.050;2023-03-29T17:47:21;9.60;;;3.30;;
18568;SDS011;14780;48.316;-1.050;2023-03-29T17:50:07;8.02;;;3.33;;
18568;SDS011;14780;48.316;-1.050;2023-03-29T17:52:53;5.22;;;2.50;;
18568;SDS011;14780;48.316;-1.050;2023-03-29T17:55:38;5.97;;;2.72;;
18568;SDS011;14780;48.316;-1.050;2023-03-29T17:58:23;6.32;;;2.65;;
18568;SDS011;14780;48.316;-1.050;2023-03-29T18:01:08;4.43;;;2.42;;
18568;SDS011;14780;48.316;-1.050;2023-03-29T18:03:54;5.60;;;3.00;;
18568;SDS011;14780;48.316;-1.050;2023-03-29T18:06:39;6.03;;;3.00;;
18568;SDS011;14780;48.316;-1.050;2023-03-29T18:09:25;5.20;;;2.70;;
18568;SDS011;14780;48.316;-1.050;2023-03-29T18:12:10;6.78;;;3.08;;
18568;SDS011;14780;48.316;-1.050;2023-03-29T18:14:55;6.72;;;2.45;;
18568;SDS011;14780;48.316;-1.050;2023-03-29T18:17:39;3.88;;;2.60;;
18568;SDS011;14780;48.316;-1.050;2023-03-29T18:20:24;5.97;;;2.95;;
18568;SDS011;14780;48.316;-1.050;2023-03-29T18:23:09;5.55;;;2.80;;
18568;SDS011;14780;48.316;-1.050;2023-03-29T18:26:02;3.85;;;2.67;;
18568;SDS011;14780;48.316;-1.050;2023-03-29T18:28:48;6.22;;;2.63;;
18568;SDS011;14780;48.316;-1.050;2023-03-29T18:31:34;7.18;;;2.47;;
18568;SDS011;14780;48.316;-1.050;2023-03-29T18:34:18;6.72;;;2.30;;
18568;SDS011;14780;48.316;-1.050;2023-03-29T18:37:03;6.05;;;2.92;;